Time;durP1;ratioP1;P1;durP2;ratioP2;P2;SDS_P1;SDS_P2;PMS_P1;PMS_P2;Temp;Humidity;BMP_temperature;BMP_pressure;BME280_temperature;BME280_humidity;BME280_pressure;Samples;Min_cycle;Max_cycle;Signal;HPM_P1;HPM_P2
2021/12/18 00:00:38;;;;;;;4.32;2.90;;;8.10;99.90;;;;;;4993273;28;20047;-62
2021/12/18 00:03:05;;;;;;;4.78;2.80;;;8.20;99.90;;;;;;4993753;28;20480;-62
2021/12/18 00:05:31;;;;;;;7.28;2.95;;;;;;;;;;4993983;28;20089;-63
2021/12/18 00:07:57;;;;;;;4.72;3.00;;;8.00;99.90;;;;;;4995320;28;20042;-63
2021/12/18 00:10:23;;;;;;;6.10;3.75;;;8.00;99.90;;;;;;4994897;28;20045;-62
2021/12/18 00:12:51;;;;;;;5.57;2.88;;;8.00;99.90;;;;;;4995124;28;20048;-62
2021/12/18 00:15:18;;;;;;;5.78;3.33;;;7.90;99.90;;;;;;4993954;28;20042;-62
2021/12/18 00:17:44;;;;;;;7.05;3.28;;;8.00;99.90;;;;;;4993603;28;20045;-62
2021/12/18 00:20:10;;;;;;;6.10;3.40;;;8.00;99.90;;;;;;5010581;28;20043;-62
2021/12/18 00:22:36;;;;;;;5.88;3.42;;;7.80;99.90;;;;;;4993543;28;20124;-62
2021/12/18 00:25:02;;;;;;;5.03;3.40;;;7.90;99.90;;;;;;4994824;28;20046;-62
2021/12/18 00:27:27;;;;;;;5.00;2.47;;;8.00;99.90;;;;;;4993508;28;20042;-62
2021/12/18 00:29:53;;;;;;;6.10;3.03;;;7.70;99.90;;;;;;4995186;28;20065;-62
2021/12/18 00:32:19;;;;;;;8.27;3.60;;;;;;;;;;4993167;28;20072;-62
2021/12/18 00:34:45;;;;;;;8.50;3.13;;;;;;;;;;4993522;28;20070;-64
2021/12/18 00:37:11;;;;;;;8.10;3.67;;;;;;;;;;4993494;28;20385;-64
2021/12/18 00:39:43;;;;;;;10.38;4.13;;;;;;;;;;4994153;28;20065;-64
2021/12/18 00:42:23;;;;;;;9.27;3.70;;;;;;;;;;4998427;28;20380;-64
2021/12/18 00:44:49;;;;;;;8.77;3.92;;;8.00;99.90;;;;;;4997243;28;20177;-63
2021/12/18 00:47:15;;;;;;;9.07;3.92;;;8.00;99.90;;;;;;4980803;28;20038;-62
2021/12/18 00:49:41;;;;;;;6.93;4.05;;;7.80;99.90;;;;;;4998627;28;20038;-62
2021/12/18 00:52:07;;;;;;;19.80;4.45;;;7.70;99.90;;;;;;4998377;28;20111;-62
2021/12/18 00:54:34;;;;;;;6.32;3.28;;;7.80;99.90;;;;;;4998327;28;20042;-63
2021/12/18 00:57:00;;;;;;;5.78;2.75;;;7.90;99.90;;;;;;4997442;28;20388;-62
2021/12/18 00:59:26;;;;;;;5.03;3.50;;;;;;;;;;4996711;28;20049;-62
2021/12/18 01:01:52;;;;;;;7.40;3.15;;;7.80;99.90;;;;;;4996604;28;20081;-62
2021/12/18 01:04:18;;;;;;;8.95;3.75;;;7.90;99.90;;;;;;4999239;28;20042;-64
2021/12/18 01:06:44;;;;;;;13.77;4.35;;;7.80;99.90;;;;;;4997977;28;20042;-64
2021/12/18 01:09:10;;;;;;;13.18;4.10;;;7.70;99.90;;;;;;4997757;28;20058;-62
2021/12/18 01:11:44;;;;;;;17.85;5.03;;;7.80;99.90;;;;;;4996305;28;20225;-62
2021/12/18 01:14:43;;;;;;;9.57;4.30;;;7.80;99.90;;;;;;4980662;28;20084;-62
2021/12/18 01:25:05;;;;;;;11.65;4.93;;;7.70;99.90;;;;;;4995014;28;20042;-62
2021/12/18 01:27:31;;;;;;;21.27;4.78;;;;;;;;;;4996201;28;20045;-62
2021/12/18 01:29:57;;;;;;;13.48;4.93;;;7.80;99.90;;;;;;4997006;28;20050;-62
2021/12/18 01:32:24;;;;;;;14.80;4.60;;;7.70;99.90;;;;;;4998028;28;20038;-62
2021/12/18 01:34:50;;;;;;;11.32;4.32;;;7.60;99.90;;;;;;4997601;28;20050;-62
2021/12/18 01:37:16;;;;;;;12.00;4.57;;;;;;;;;;4996097;28;20048;-62
2021/12/18 01:39:42;;;;;;;7.70;3.38;;;7.70;99.90;;;;;;4996255;28;20403;-63
2021/12/18 01:52:43;;;;;;;7.32;3.20;;;;;;;;;;4994943;28;20105;-62
2021/12/18 01:55:10;;;;;;;11.35;3.67;;;7.60;99.90;;;;;;4995724;28;20042;-62
2021/12/18 01:57:36;;;;;;;10.25;3.30;;;7.30;99.90;;;;;;4997135;28;20133;-62
2021/12/18 02:00:20;;;;;;;7.95;3.40;;;7.60;99.90;;;;;;4997805;28;20065;-62
2021/12/18 02:02:46;;;;;;;10.52;3.70;;;7.70;99.90;;;;;;4979689;28;20050;-62
2021/12/18 02:05:12;;;;;;;19.77;4.65;;;7.50;99.90;;;;;;4997158;28;20049;-62
2021/12/18 02:07:40;;;;;;;10.43;4.35;;;7.40;99.90;;;;;;4979684;28;20042;-62
2021/12/18 02:10:10;;;;;;;18.13;4.40;;;7.40;99.90;;;;;;4996204;28;20042;-62
2021/12/18 02:12:48;;;;;;;10.82;3.55;;;7.40;99.90;;;;;;4995683;28;20403;-62
2021/12/18 02:20:47;;;;;;;12.13;4.65;;;7.50;99.90;;;;;;4989331;28;20055;-64
2021/12/18 02:23:14;;;;;;;34.67;5.95;;;7.30;99.90;;;;;;4996153;28;20042;-64
2021/12/18 02:25:40;;;;;;;17.50;4.40;;;;;;;;;;4995578;28;20085;-64
2021/12/18 02:28:14;;;;;;;23.60;5.07;;;7.40;99.90;;;;;;4979338;28;20042;-62
2021/12/18 02:30:40;;;;;;;26.17;5.28;;;7.40;99.90;;;;;;4996782;28;20050;-62
2021/12/18 02:33:06;;;;;;;35.10;6.30;;;7.50;99.90;;;;;;4996722;28;20088;-62
2021/12/18 02:35:39;;;;;;;14.23;5.43;;;7.40;99.90;;;;;;4995370;28;20045;-62
2021/12/18 02:38:11;;;;;;;19.85;4.70;;;7.40;99.90;;;;;;4979263;28;20452;-62
2021/12/18 02:43:29;;;;;;;29.48;4.88;;;7.50;99.90;;;;;;4996559;28;20047;-62
2021/12/18 02:45:59;;;;;;;30.85;4.22;;;7.50;99.90;;;;;;4978874;28;20471;-63
2021/12/18 02:48:29;;;;;;;28.48;4.10;;;7.50;99.90;;;;;;4995656;28;20042;-63
2021/12/18 02:50:55;;;;;;;9.05;3.15;;;7.40;99.90;;;;;;4994730;28;20082;-64
2021/12/18 02:53:22;;;;;;;26.20;3.47;;;7.30;99.90;;;;;;4995755;28;20042;-62
2021/12/18 02:55:55;;;;;;;13.38;3.08;;;7.40;99.90;;;;;;4978458;28;20046;-62
2021/12/18 02:58:20;;;;;;;56.58;4.97;;;7.30;99.90;;;;;;4995835;28;20034;-63
2021/12/18 03:00:46;;;;;;;12.80;3.80;;;;;;;;;;4994644;28;20100;-64
2021/12/18 03:03:14;;;;;;;23.70;4.03;;;7.40;99.90;;;;;;4995049;28;20070;-63
2021/12/18 03:05:49;;;;;;;5.75;3.65;;;7.50;99.90;;;;;;4994914;28;20035;-64
2021/12/18 03:08:22;;;;;;;9.27;3.85;;;7.40;99.90;;;;;;4994989;28;20054;-64
2021/12/18 03:19:53;;;;;;;18.42;3.45;;;7.40;99.90;;;;;;4995496;28;20471;-62
2021/12/18 03:24:53;;;;;;;6.32;2.58;;;7.50;99.90;;;;;;4994585;28;20054;-62
2021/12/18 03:27:19;;;;;;;20.52;2.97;;;7.30;99.90;;;;;;4995826;28;20042;-64
2021/12/18 03:29:45;;;;;;;5.40;2.35;;;7.10;99.90;;;;;;4996233;28;20487;-64
2021/12/18 03:32:11;;;;;;;18.55;4.03;;;;;;;;;;4978253;28;20170;-63
2021/12/18 03:34:37;;;;;;;9.25;3.90;;;;;;;;;;4996356;28;20480;-65
2021/12/18 03:37:04;;;;;;;13.52;3.47;;;;;;;;;;4994353;28;20042;-64
2021/12/18 03:39:30;;;;;;;13.65;3.47;;;;;;;;;;4994235;28;20038;-64
2021/12/18 03:41:55;;;;;;;21.52;5.03;;;7.30;99.90;;;;;;4994365;28;20058;-62
2021/12/18 03:44:22;;;;;;;17.55;4.80;;;7.20;99.90;;;;;;4993896;28;20046;-62
2021/12/18 03:46:49;;;;;;;11.57;3.65;;;7.20;99.90;;;;;;4995119;28;20050;-62
2021/12/18 03:49:14;;;;;;;4.28;3.00;;;7.30;99.90;;;;;;4993852;28;20069;-62
2021/12/18 03:51:40;;;;;;;5.75;2.85;;;7.00;99.90;;;;;;4994699;28;20042;-63
2021/12/18 03:54:05;;;;;;;4.05;2.40;;;7.20;99.90;;;;;;4993319;28;20132;-62
2021/12/18 03:56:32;;;;;;;2.95;2.15;;;7.20;99.90;;;;;;4995088;28;20038;-62
2021/12/18 03:58:58;;;;;;;3.70;2.10;;;;;;;;;;4995064;28;20156;-64
2021/12/18 04:01:25;;;;;;;5.15;2.40;;;7.10;99.90;;;;;;5011051;28;20097;-63
2021/12/18 04:03:51;;;;;;;2.90;1.95;;;7.30;99.90;;;;;;4993932;28;20041;-64
2021/12/18 04:06:16;;;;;;;2.85;1.58;;;7.20;99.90;;;;;;4993711;28;20054;-63
2021/12/18 04:08:42;;;;;;;4.32;2.05;;;7.10;99.90;;;;;;4995219;28;20059;-64
2021/12/18 04:11:07;;;;;;;4.78;1.88;;;7.20;99.90;;;;;;4995831;28;20050;-64
2021/12/18 04:13:33;;;;;;;3.50;1.67;;;7.10;99.90;;;;;;4961301;28;20113;-64
2021/12/18 04:15:59;;;;;;;6.90;1.70;;;7.20;99.90;;;;;;4994390;28;20034;-64
2021/12/18 04:18:25;;;;;;;3.28;1.50;;;;;;;;;;4995665;28;20132;-64
2021/12/18 04:20:50;;;;;;;4.65;1.58;;;7.10;99.90;;;;;;4994485;28;20078;-63
2021/12/18 04:23:16;;;;;;;2.67;1.33;;;7.10;99.90;;;;;;4993816;28;20073;-64
2021/12/18 04:25:43;;;;;;;3.28;1.50;;;7.00;99.90;;;;;;4994593;28;20504;-64
2021/12/18 04:28:08;;;;;;;3.55;1.83;;;7.10;99.90;;;;;;4993904;28;20038;-64
2021/12/18 04:30:34;;;;;;;3.03;1.55;;;7.10;99.90;;;;;;4993354;28;20144;-64
2021/12/18 04:33:01;;;;;;;5.97;1.40;;;;;;;;;;4994154;28;20050;-64
2021/12/18 04:35:27;;;;;;;6.60;1.85;;;7.00;99.90;;;;;;4993373;28;20121;-63
2021/12/18 04:37:53;;;;;;;3.42;1.55;;;7.20;99.90;;;;;;4994759;28;20046;-61
2021/12/18 04:40:25;;;;;;;3.75;1.55;;;7.00;99.90;;;;;;4993823;28;20042;-62
2021/12/18 04:42:51;;;;;;;4.18;1.83;;;7.10;99.90;;;;;;4976930;28;20065;-61
2021/12/18 04:45:16;;;;;;;4.88;2.22;;;7.20;99.90;;;;;;4993419;28;20102;-62
2021/12/18 04:47:42;;;;;;;5.78;1.95;;;;;;;;;;4993290;28;20074;-63
2021/12/18 04:50:08;;;;;;;4.68;2.15;;;7.10;99.90;;;;;;4993335;28;20129;-62
2021/12/18 04:52:34;;;;;;;6.93;2.88;;;;;;;;;;4962941;28;20129;-63
2021/12/18 04:55:00;;;;;;;4.82;1.90;;;6.90;99.90;;;;;;4992516;28;20395;-62
2021/12/18 04:57:26;;;;;;;6.35;2.03;;;7.10;99.90;;;;;;4991502;28;20055;-63
2021/12/18 04:59:52;;;;;;;6.97;2.13;;;7.00;99.90;;;;;;4991333;28;20049;-62
2021/12/18 05:02:21;;;;;;;5.55;2.15;;;7.10;99.90;;;;;;4993121;28;20053;-62
2021/12/18 05:04:47;;;;;;;4.78;1.77;;;6.90;99.90;;;;;;4991473;28;20112;-62
2021/12/18 05:07:13;;;;;;;6.55;2.00;;;7.10;99.90;;;;;;4991061;28;20086;-62
2021/12/18 05:09:39;;;;;;;8.02;2.40;;;7.10;99.90;;;;;;4991735;28;20039;-62
2021/12/18 05:12:06;;;;;;;5.80;2.35;;;7.10;99.90;;;;;;4990891;28;20400;-62
2021/12/18 05:14:31;;;;;;;7.22;2.45;;;7.10;99.90;;;;;;4991931;28;20474;-62
2021/12/18 05:16:57;;;;;;;5.25;2.00;;;7.00;99.90;;;;;;4993044;28;20121;-62
2021/12/18 05:19:23;;;;;;;4.47;1.95;;;;;;;;;;4991924;28;20057;-62
2021/12/18 05:21:48;;;;;;;6.38;2.80;;;7.20;99.90;;;;;;4991484;28;20046;-62
2021/12/18 05:24:14;;;;;;;5.60;2.67;;;;;;;;;;4992883;28;20038;-62
2021/12/18 05:26:40;;;;;;;4.68;2.20;;;7.20;99.90;;;;;;4992765;28;20038;-63
2021/12/18 05:29:06;;;;;;;7.03;2.53;;;;;;;;;;4993901;28;20048;-62
2021/12/18 05:31:33;;;;;;;10.73;2.55;;;7.10;99.90;;;;;;4995299;28;20057;-62
2021/12/18 05:34:02;;;;;;;7.15;3.05;;;7.10;99.90;;;;;;4994853;28;20119;-63
2021/12/18 05:36:40;;;;;;;5.20;2.20;;;7.30;99.90;;;;;;4995289;28;20468;-62
2021/12/18 05:39:09;;;;;;;8.40;2.40;;;7.40;99.90;;;;;;4984350;28;20050;-64
2021/12/18 05:41:35;;;;;;;7.05;2.03;;;7.20;99.90;;;;;;4993773;28;20046;-62
2021/12/18 05:44:01;;;;;;;7.63;2.65;;;;;;;;;;4994912;28;20057;-62
2021/12/18 05:46:27;;;;;;;6.68;2.38;;;;;;;;;;4993463;28;20050;-63
2021/12/18 05:48:53;;;;;;;5.93;2.60;;;;;;;;;;4993958;28;20054;-63
2021/12/18 05:51:19;;;;;;;9.38;3.13;;;7.30;99.90;;;;;;4994857;28;20046;-63
2021/12/18 05:53:45;;;;;;;6.65;2.97;;;7.20;99.90;;;;;;4994634;28;20630;-62
2021/12/18 05:56:11;;;;;;;7.07;2.45;;;7.30;99.90;;;;;;4994482;28;20042;-62
2021/12/18 05:58:37;;;;;;;9.90;2.60;;;7.20;99.90;;;;;;4993517;28;20046;-62
2021/12/18 06:01:03;;;;;;;10.15;2.90;;;7.30;99.90;;;;;;4994721;28;20042;-62
2021/12/18 06:03:28;;;;;;;9.27;2.67;;;7.30;99.90;;;;;;4993560;28;20096;-62
2021/12/18 06:05:54;;;;;;;8.27;3.15;;;7.10;99.90;;;;;;4994546;28;20046;-62
2021/12/18 06:08:19;;;;;;;11.50;3.72;;;7.40;99.90;;;;;;4994566;28;20088;-62
2021/12/18 06:10:45;;;;;;;9.45;3.35;;;;;;;;;;4994313;28;20077;-63
2021/12/18 06:13:11;;;;;;;7.90;3.22;;;7.30;99.90;;;;;;4992845;28;20046;-62
2021/12/18 06:15:37;;;;;;;11.00;3.40;;;;;;;;;;4992188;28;20093;-64
2021/12/18 06:18:03;;;;;;;10.15;3.55;;;;;;;;;;4991447;28;20058;-62
2021/12/18 06:20:30;;;;;;;12.07;4.10;;;7.40;99.90;;;;;;4989981;28;20093;-63
2021/12/18 06:22:56;;;;;;;9.05;3.25;;;7.40;99.90;;;;;;4991307;28;20053;-62
2021/12/18 06:25:22;;;;;;;10.23;3.22;;;;;;;;;;4989793;28;20046;-63
2021/12/18 06:27:48;;;;;;;10.50;4.30;;;;;;;;;;4991167;28;20183;-62
2021/12/18 06:30:17;;;;;;;11.63;3.75;;;;;;;;;;4989975;28;20057;-63
2021/12/18 06:32:43;;;;;;;8.23;3.53;;;;;;;;;;4991199;28;20061;-63
2021/12/18 06:35:09;;;;;;;10.07;4.10;;;7.50;99.90;;;;;;4989732;28;20050;-63
2021/12/18 06:37:35;;;;;;;13.63;5.13;;;;;;;;;;4989365;28;20046;-62
2021/12/18 06:40:01;;;;;;;11.68;4.90;;;;;;;;;;4988983;28;20615;-62
2021/12/18 06:42:27;;;;;;;10.65;4.18;;;7.50;99.90;;;;;;4989550;28;20424;-61
2021/12/18 06:44:53;;;;;;;8.40;3.83;;;7.50;99.90;;;;;;4991027;28;20064;-61
2021/12/18 06:47:18;;;;;;;8.63;3.92;;;7.50;99.90;;;;;;4994796;28;20411;-61
2021/12/18 06:49:44;;;;;;;10.65;4.65;;;7.30;99.90;;;;;;4993547;28;20065;-61
2021/12/18 06:52:09;;;;;;;11.55;4.88;;;7.40;99.90;;;;;;4993693;28;20053;-62
2021/12/18 06:54:35;;;;;;;9.23;4.18;;;7.40;99.90;;;;;;4993640;28;20487;-62
2021/12/18 06:57:02;;;;;;;9.50;4.68;;;7.30;99.90;;;;;;4994142;28;20551;-62
2021/12/18 06:59:28;;;;;;;12.93;5.55;;;7.40;99.90;;;;;;4993812;28;20026;-61
2021/12/18 07:01:54;;;;;;;11.10;4.55;;;7.50;99.90;;;;;;4994566;28;20093;-61
2021/12/18 07:04:22;;;;;;;10.70;4.47;;;7.30;99.90;;;;;;4993198;28;20064;-61
2021/12/18 07:06:48;;;;;;;12.38;4.95;;;;;;;;;;4993372;28;20105;-61
2021/12/18 07:09:14;;;;;;;9.38;4.18;;;7.50;99.90;;;;;;4992655;28;20045;-63
2021/12/18 07:11:40;;;;;;;9.73;4.43;;;;;;;;;;4990504;28;20034;-63
2021/12/18 07:14:06;;;;;;;10.43;4.95;;;;;;;;;;4991888;28;20077;-61
2021/12/18 07:16:32;;;;;;;9.93;4.47;;;7.50;99.90;;;;;;4996294;28;20050;-62
2021/12/18 07:18:57;;;;;;;10.40;4.50;;;7.50;99.90;;;;;;4992998;28;20038;-62
2021/12/18 07:21:23;;;;;;;12.25;5.03;;;;;;;;;;4990996;28;20054;-63
2021/12/18 07:23:49;;;;;;;10.80;5.22;;;7.50;99.90;;;;;;4991695;28;20073;-62
2021/12/18 07:26:15;;;;;;;10.35;4.53;;;;;;;;;;4992765;28;20893;-64
2021/12/18 07:28:41;;;;;;;10.25;4.78;;;7.50;99.90;;;;;;4996536;28;20574;-62
2021/12/18 07:31:07;;;;;;;12.63;4.38;;;7.60;99.90;;;;;;4991047;28;20069;-61
2021/12/18 07:33:35;;;;;;;11.95;4.53;;;;;;;;;;4992698;28;20038;-62
2021/12/18 07:36:00;;;;;;;11.57;5.03;;;7.50;99.90;;;;;;4991239;28;20404;-62
2021/12/18 07:38:26;;;;;;;10.13;4.60;;;;;;;;;;4992273;28;20053;-62
2021/12/18 07:40:52;;;;;;;6.75;3.97;;;7.60;99.90;;;;;;4990979;28;20053;-62
2021/12/18 07:43:18;;;;;;;10.93;4.75;;;;;;;;;;4991154;28;20101;-63
2021/12/18 07:45:44;;;;;;;9.70;4.50;;;;;;;;;;4991184;28;20065;-62
2021/12/18 07:48:10;;;;;;;15.10;5.20;;;7.60;99.90;;;;;;4990946;28;20114;-62
2021/12/18 07:50:36;;;;;;;10.48;4.80;;;;;;;;;;4991625;28;20121;-63
2021/12/18 07:53:02;;;;;;;12.38;5.45;;;;;;;;;;4991100;28;20046;-62
2021/12/18 07:55:28;;;;;;;19.80;6.43;;;7.60;99.90;;;;;;4991901;28;20049;-61
2021/12/18 07:57:54;;;;;;;15.13;5.07;;;;;;;;;;4990835;28;20403;-62
2021/12/18 08:00:21;;;;;;;10.63;5.20;;;7.60;99.90;;;;;;4990183;28;20096;-61
2021/12/18 08:02:46;;;;;;;9.90;4.85;;;7.60;99.90;;;;;;4990925;28;20543;-62
2021/12/18 08:05:14;;;;;;;10.07;5.18;;;7.70;99.90;;;;;;5004178;28;20038;-62
2021/12/18 08:07:40;;;;;;;13.60;6.85;;;7.60;99.90;;;;;;5000141;28;20042;-62
2021/12/18 08:10:06;;;;;;;12.63;7.28;;;;;;;;;;4991005;28;20476;-63
2021/12/18 08:12:32;;;;;;;11.68;5.45;;;;;;;;;;4990250;28;20046;-62
2021/12/18 08:14:58;;;;;;;12.23;5.57;;;7.70;99.90;;;;;;4991958;28;20186;-62
2021/12/18 08:17:25;;;;;;;10.20;4.88;;;7.50;99.90;;;;;;4992035;28;20117;-62
2021/12/18 08:19:51;;;;;;;9.45;4.97;;;7.80;99.90;;;;;;4992016;28;20042;-61
2021/12/18 08:22:17;;;;;;;10.90;4.40;;;;;;;;;;4990675;28;20046;-63
2021/12/18 08:24:42;;;;;;;12.32;5.15;;;7.60;99.90;;;;;;4992018;28;20073;-61
2021/12/18 08:27:08;;;;;;;15.10;5.88;;;7.70;99.90;;;;;;4991931;28;20420;-63
2021/12/18 08:29:34;;;;;;;12.02;5.47;;;;;;;;;;4991684;28;20038;-63
2021/12/18 08:32:00;;;;;;;12.40;5.43;;;7.70;99.90;;;;;;4991761;28;20050;-63
2021/12/18 08:34:26;;;;;;;12.55;5.10;;;7.80;99.90;;;;;;4992055;28;20038;-63
2021/12/18 08:36:52;;;;;;;16.63;5.60;;;;;;;;;;4989028;28;20046;-64
2021/12/18 08:39:18;;;;;;;12.55;5.68;;;7.90;99.90;;;;;;4988110;28;20053;-62
2021/12/18 08:41:45;;;;;;;9.55;4.85;;;7.90;99.90;;;;;;4988263;28;20047;-62
2021/12/18 08:44:12;;;;;;;9.32;5.18;;;7.90;99.90;;;;;;4990704;28;20062;-63
2021/12/18 08:46:38;;;;;;;12.05;5.65;;;7.90;99.90;;;;;;4990493;28;20042;-62
2021/12/18 08:49:04;;;;;;;11.75;5.80;;;8.00;99.90;;;;;;4990674;28;20042;-63
2021/12/18 08:51:30;;;;;;;13.55;6.03;;;7.90;99.90;;;;;;4988850;28;20045;-63
2021/12/18 08:53:57;;;;;;;17.45;8.90;;;7.90;99.90;;;;;;4990065;28;20042;-62
2021/12/18 08:56:23;;;;;;;16.55;7.95;;;;;;;;;;4972668;28;20042;-64
2021/12/18 08:58:50;;;;;;;24.92;14.40;;;;;;;;;;4987832;28;20052;-64
2021/12/18 09:01:17;;;;;;;20.67;10.90;;;8.10;99.90;;;;;;4987221;28;20517;-62
2021/12/18 09:03:43;;;;;;;10.93;5.85;;;;;;;;;;4990898;28;20046;-62
2021/12/18 09:06:10;;;;;;;12.38;5.70;;;;;;;;;;5018528;28;20038;-64
2021/12/18 09:08:35;;;;;;;37.85;19.63;;;8.10;99.90;;;;;;4990462;28;20084;-62
2021/12/18 09:11:01;;;;;;;28.65;14.35;;;;;;;;;;4989109;28;20074;-65
2021/12/18 09:13:27;;;;;;;26.42;13.82;;;;;;;;;;4988368;28;20058;-65
2021/12/18 09:15:53;;;;;;;16.75;8.98;;;;;;;;;;4990007;28;20057;-65
2021/12/18 09:18:19;;;;;;;11.60;5.47;;;;;;;;;;4991078;28;20538;-64
2021/12/18 09:20:46;;;;;;;11.48;5.20;;;8.20;99.90;;;;;;4989659;28;20181;-63
2021/12/18 09:23:16;;;;;;;12.98;5.93;;;;;;;;;;4989433;28;20046;-64
2021/12/18 09:25:42;;;;;;;10.30;4.82;;;;;;;;;;5002036;28;20100;-63
2021/12/18 09:28:08;;;;;;;13.90;8.23;;;;;;;;;;5007225;28;20045;-64
2021/12/18 09:30:34;;;;;;;27.13;14.75;;;;;;;;;;4989885;28;20046;-63
2021/12/18 09:33:00;;;;;;;21.02;10.55;;;;;;;;;;4989738;28;20101;-65
2021/12/18 09:35:26;;;;;;;18.52;7.10;;;;;;;;;;4989560;28;20053;-65
2021/12/18 09:37:52;;;;;;;13.23;5.63;;;;;;;;;;4990961;28;20056;-65
2021/12/18 09:40:19;;;;;;;11.50;5.65;;;;;;;;;;4990861;28;20451;-63
2021/12/18 09:42:46;;;;;;;11.18;5.05;;;8.30;99.90;;;;;;4990880;28;20042;-63
2021/12/18 09:45:14;;;;;;;11.02;5.05;;;8.40;99.90;;;;;;4989390;28;20133;-63
2021/12/18 09:47:40;;;;;;;12.90;4.90;;;8.40;99.90;;;;;;5005912;28;20046;-64
2021/12/18 09:50:06;;;;;;;11.50;5.10;;;;;;;;;;4990750;28;20053;-64
2021/12/18 09:52:35;;;;;;;10.75;5.28;;;;;;;;;;4990945;28;20042;-63
2021/12/18 09:55:00;;;;;;;12.07;5.10;;;8.50;99.90;;;;;;4976987;28;20043;-63
2021/12/18 09:57:26;;;;;;;9.00;4.18;;;8.50;99.90;;;;;;4986346;28;20054;-63
2021/12/18 09:59:52;;;;;;;15.60;5.60;;;8.60;99.90;;;;;;4992489;28;20034;-63
2021/12/18 10:02:18;;;;;;;10.85;5.07;;;;;;;;;;4991566;28;20400;-62
2021/12/18 10:04:45;;;;;;;12.18;5.47;;;8.60;99.90;;;;;;4990307;28;20149;-64
2021/12/18 10:07:22;;;;;;;12.52;5.13;;;8.60;99.90;;;;;;4991910;28;20096;-62
2021/12/18 10:09:51;;;;;;;11.95;5.40;;;8.60;99.90;;;;;;4991938;28;20042;-63
2021/12/18 10:12:22;;;;;;;19.85;6.30;;;8.70;99.90;;;;;;4991401;28;20042;-62
2021/12/18 10:14:48;;;;;;;13.88;5.22;;;;;;;;;;4987995;28;20400;-64
2021/12/18 10:17:27;;;;;;;14.63;6.00;;;8.70;99.90;;;;;;4992284;28;20049;-63
2021/12/18 10:20:15;;;;;;;11.88;5.90;;;8.70;99.90;;;;;;4990956;28;20436;-63
2021/12/18 10:22:52;;;;;;;15.02;5.43;;;8.60;99.90;;;;;;4990220;28;20054;-64
2021/12/18 10:25:21;;;;;;;11.77;5.75;;;8.70;99.90;;;;;;4990593;28;20443;-63
2021/12/18 10:28:12;;;;;;;13.82;5.38;;;8.80;99.90;;;;;;4989571;28;20046;-64
2021/12/18 10:30:49;;;;;;;9.73;5.47;;;8.90;99.90;;;;;;4990712;28;20081;-63
2021/12/18 10:33:16;;;;;;;12.82;5.15;;;8.80;99.90;;;;;;4989061;28;20057;-63
2021/12/18 10:35:50;;;;;;;10.15;4.50;;;8.70;99.90;;;;;;4990835;28;20050;-62
2021/12/18 10:38:43;;;;;;;11.50;5.38;;;8.90;99.90;;;;;;4990176;28;20070;-63
2021/12/18 10:41:34;;;;;;;11.35;5.93;;;8.70;99.90;;;;;;4989359;28;20053;-63
2021/12/18 10:44:00;;;;;;;9.82;5.32;;;;;;;;;;4990837;28;20050;-63
2021/12/18 10:46:27;;;;;;;10.80;5.13;;;;;;;;;;4992492;28;20129;-64
2021/12/18 10:48:56;;;;;;;10.98;5.55;;;8.80;99.90;;;;;;4991176;28;20053;-62
2021/12/18 10:51:23;;;;;;;9.50;5.45;;;8.90;99.90;;;;;;5002697;28;20034;-64
2021/12/18 10:53:49;;;;;;;15.10;5.68;;;8.80;99.90;;;;;;4993116;28;20042;-64
2021/12/18 10:56:15;;;;;;;12.68;5.95;;;8.90;99.90;;;;;;4992008;28;20039;-64
2021/12/18 10:58:40;;;;;;;12.35;5.78;;;8.80;99.90;;;;;;4992468;28;20117;-63
2021/12/18 11:01:11;;;;;;;10.00;5.32;;;8.90;99.90;;;;;;4990839;28;20046;-64
2021/12/18 11:03:41;;;;;;;10.93;5.55;;;8.90;99.90;;;;;;4992436;28;20073;-64
2021/12/18 11:06:07;;;;;;;9.48;4.45;;;;;;;;;;4990391;28;20042;-63
2021/12/18 11:08:48;;;;;;;7.57;3.83;;;8.90;99.90;;;;;;4989794;28;20100;-63
2021/12/18 11:13:58;;;;;;;8.60;3.03;;;;;;;;;;4987247;28;20086;-63
2021/12/18 11:16:25;;;;;;;5.97;1.90;;;8.90;99.90;;;;;;4989858;28;20050;-62
2021/12/18 11:18:51;;;;;;;2.22;1.75;;;;;;;;;;4992291;28;20472;-62
2021/12/18 11:21:17;;;;;;;2.75;1.70;;;8.90;99.90;;;;;;4991966;28;20073;-63
2021/12/18 11:23:48;;;;;;;5.07;2.35;;;9.00;99.90;;;;;;4990787;28;20487;-62
2021/12/18 11:26:15;;;;;;;3.63;2.40;;;8.90;99.90;;;;;;4971334;28;20051;-63
2021/12/18 11:28:48;;;;;;;6.38;2.47;;;;;;;;;;4980221;28;20073;-65
2021/12/18 11:31:15;;;;;;;4.75;2.67;;;;;;;;;;4987672;28;20129;-63
2021/12/18 11:33:41;;;;;;;5.53;2.95;;;;;;;;;;4987520;28;20090;-63
2021/12/18 11:36:08;;;;;;;4.72;2.30;;;;;;;;;;4971126;28;20056;-64
2021/12/18 11:38:35;;;;;;;4.40;2.78;;;9.20;99.90;;;;;;4987585;28;20054;-63
2021/12/18 11:41:02;;;;;;;7.22;2.72;;;;;;;;;;4987446;28;20066;-64
2021/12/18 11:43:37;;;;;;;3.67;2.83;;;8.90;99.90;;;;;;4987271;28;20467;-64
2021/12/18 11:46:33;;;;;;;5.47;3.17;;;9.10;99.90;;;;;;4987176;28;20134;-63
2021/12/18 11:49:10;;;;;;;7.15;3.50;;;9.00;99.90;;;;;;4987476;28;20081;-63
2021/12/18 11:51:37;;;;;;;7.68;3.75;;;9.00;99.90;;;;;;4989185;28;20136;-62
2021/12/18 11:54:23;;;;;;;8.85;3.92;;;8.80;99.90;;;;;;4987210;28;20058;-63
2021/12/18 11:56:50;;;;;;;6.43;3.65;;;8.80;99.90;;;;;;4987984;28;20046;-63
2021/12/18 11:59:40;;;;;;;7.70;3.75;;;9.10;99.90;;;;;;4989503;28;20078;-63
2021/12/18 12:02:07;;;;;;;5.95;3.38;;;9.10;99.90;;;;;;4989473;28;20528;-63
2021/12/18 12:04:59;;;;;;;7.88;4.28;;;9.10;99.90;;;;;;4991504;28;20049;-63
2021/12/18 12:07:26;;;;;;;5.75;3.78;;;8.90;99.90;;;;;;4989150;28;20381;-62
2021/12/18 12:10:20;;;;;;;11.02;4.68;;;;;;;;;;4989278;28;20034;-62
2021/12/18 12:12:47;;;;;;;8.05;4.30;;;9.20;99.90;;;;;;4984270;28;20058;-63
2021/12/18 12:15:15;;;;;;;8.23;4.95;;;9.10;99.90;;;;;;4985701;28;20046;-62
2021/12/18 12:18:11;;;;;;;12.43;6.90;;;9.00;99.90;;;;;;4984307;28;20057;-62
2021/12/18 12:20:42;;;;;;;14.38;6.43;;;;;;;;;;4971933;28;20170;-63
2021/12/18 12:23:10;;;;;;;15.05;7.28;;;;;;;;;;4984399;28;20050;-62
2021/12/18 12:25:50;;;;;;;13.18;7.47;;;9.00;99.90;;;;;;4985822;28;20608;-62
2021/12/18 12:28:24;;;;;;;14.88;8.38;;;9.40;99.90;;;;;;4985344;28;20445;-62
2021/12/18 12:31:06;;;;;;;18.85;10.27;;;;;;;;;;4985644;28;20049;-63
2021/12/18 12:33:36;;;;;;;17.25;10.38;;;9.20;99.90;;;;;;4985920;28;20112;-63
2021/12/18 12:36:14;;;;;;;17.35;8.38;;;9.30;99.90;;;;;;4983931;28;20050;-63
2021/12/18 12:38:56;;;;;;;14.13;6.82;;;9.20;99.90;;;;;;4988072;28;20125;-62
2021/12/18 12:41:35;;;;;;;15.43;5.20;;;9.10;99.90;;;;;;4991029;28;20085;-63
2021/12/18 12:44:35;;;;;;;14.27;5.47;;;9.00;99.90;;;;;;4993085;28;20129;-63
2021/12/18 12:47:15;;;;;;;8.52;4.47;;;;;;;;;;4991914;28;20134;-63
2021/12/18 12:49:42;;;;;;;9.40;4.47;;;9.30;99.90;;;;;;4993292;28;20046;-62
2021/12/18 12:52:16;;;;;;;13.90;3.95;;;9.20;99.90;;;;;;4991442;28;20046;-62
2021/12/18 12:54:47;;;;;;;7.73;4.70;;;9.00;99.90;;;;;;4991523;28;20538;-62
2021/12/18 12:57:22;;;;;;;10.07;5.82;;;9.30;99.90;;;;;;4991393;28;20038;-62
2021/12/18 13:00:16;;;;;;;12.20;4.47;;;9.20;99.90;;;;;;4991603;28;20094;-62
2021/12/18 13:03:12;;;;;;;11.23;4.65;;;9.30;99.90;;;;;;4991327;28;20061;-62
2021/12/18 13:05:52;;;;;;;;;;;9.10;99.90;;;;;;4992324;28;20153;-63
2021/12/18 13:08:19;;;;;;;10.20;4.47;;;;;;;;;;4991335;28;19988;-62
2021/12/18 13:10:47;;;;;;;12.05;4.45;;;;;;;;;;5007655;28;20046;-63
2021/12/18 13:13:18;;;;;;;9.32;3.90;;;9.20;99.90;;;;;;4992632;28;20111;-63
2021/12/18 13:16:14;;;;;;;14.38;4.28;;;9.10;99.90;;;;;;4992563;28;20042;-62
2021/12/18 13:18:41;;;;;;;9.40;3.67;;;9.20;99.90;;;;;;4991194;28;20096;-62
2021/12/18 13:21:29;;;;;;;10.63;3.88;;;9.20;99.90;;;;;;4991659;28;20044;-63
2021/12/18 13:24:06;;;;;;;12.85;3.90;;;9.20;99.90;;;;;;4992487;28;20049;-63
2021/12/18 13:26:37;;;;;;;10.75;3.85;;;9.20;99.90;;;;;;4991310;28;20377;-63
2021/12/18 13:29:10;;;;;;;11.73;3.28;;;9.20;99.90;;;;;;4992250;28;20539;-63
2021/12/18 13:31:44;;;;;;;11.05;3.00;;;9.10;99.90;;;;;;4990967;28;20507;-63
2021/12/18 13:34:13;;;;;;;7.53;3.40;;;9.00;99.90;;;;;;4972936;28;20105;-63
2021/12/18 13:36:59;;;;;;;12.15;3.47;;;9.20;99.90;;;;;;4978958;28;20442;-62
2021/12/18 13:39:43;;;;;;;6.22;2.88;;;9.10;99.90;;;;;;4990734;28;20058;-62
2021/12/18 13:42:14;;;;;;;8.73;3.15;;;9.20;99.90;;;;;;4990515;28;20050;-62
2021/12/18 13:44:44;;;;;;;7.65;3.40;;;9.30;99.90;;;;;;4990547;28;20054;-63
2021/12/18 13:47:14;;;;;;;7.78;2.83;;;9.20;99.90;;;;;;4990836;28;20064;-62
2021/12/18 13:49:40;;;;;;;11.35;3.47;;;;;;;;;;4989637;28;20459;-63
2021/12/18 13:52:06;;;;;;;11.35;3.60;;;;;;;;;;4991730;28;20486;-61
2021/12/18 13:54:35;;;;;;;10.43;3.13;;;9.10;99.90;;;;;;4983095;28;20046;-63
2021/12/18 13:57:01;;;;;;;8.23;3.10;;;9.20;99.90;;;;;;4981815;28;20399;-62
2021/12/18 13:59:28;;;;;;;16.45;4.00;;;;;;;;;;4990022;28;20058;-63
2021/12/18 14:01:54;;;;;;;11.25;3.47;;;;;;;;;;4990717;28;20121;-61
2021/12/18 14:04:23;;;;;;;5.65;3.03;;;9.20;99.90;;;;;;4991301;28;20118;-62
2021/12/18 14:06:50;;;;;;;9.68;3.13;;;9.20;99.90;;;;;;4993259;28;20122;-61
2021/12/18 14:09:20;;;;;;;11.73;3.70;;;9.20;99.90;;;;;;4991958;28;20054;-62